sensor_id;sensor_type;location;lat;lon;timestamp;temperature;humidity
14737;DHT22;7459;53.590;10.062;2023-08-20T00:01:32;19.80;99.90
14737;DHT22;7459;53.590;10.062;2023-08-20T00:03:58;19.70;99.90
14737;DHT22;7459;53.590;10.062;2023-08-20T00:06:24;19.70;99.90
14737;DHT22;7459;53.590;10.062;2023-08-20T00:08:51;19.70;99.90
14737;DHT22;7459;53.590;10.062;2023-08-20T00:11:17;19.70;99.90
14737;DHT22;7459;53.590;10.062;2023-08-20T00:13:43;19.70;99.90
14737;DHT22;7459;53.590;10.062;2023-08-20T00:16:09;19.70;99.90
14737;DHT22;7459;53.590;10.062;2023-08-20T00:18:35;19.70;99.90
14737;DHT22;7459;53.590;10.062;2023-08-20T00:21:01;19.60;99.90
14737;DHT22;7459;53.590;10.062;2023-08-20T00:23:28;19.70;99.90
14737;DHT22;7459;53.590;10.062;2023-08-20T00:25:54;19.70;99.90
14737;DHT22;7459;53.590;10.062;2023-08-20T00:28:20;19.60;99.90
14737;DHT22;7459;53.590;10.062;2023-08-20T00:30:46;19.60;99.90
14737;DHT22;7459;53.590;10.062;2023-08-20T00:33:12;19.60;99.90
14737;DHT22;7459;53.590;10.062;2023-08-20T00:35:38;19.60;99.90
14737;DHT22;7459;53.590;10.062;2023-08-20T00:38:04;19.60;99.90
14737;DHT22;7459;53.590;10.062;2023-08-20T00:40:31;19.50;99.90
14737;DHT22;7459;53.590;10.062;2023-08-20T00:42:56;19.50;99.90
14737;DHT22;7459;53.590;10.062;2023-08-20T00:45:23;19.50;99.90
14737;DHT22;7459;53.590;10.062;2023-08-20T00:47:49;19.50;99.90
14737;DHT22;7459;53.590;10.062;2023-08-20T00:50:15;19.40;99.90
14737;DHT22;7459;53.590;10.062;2023-08-20T00:52:41;19.40;99.90
14737;DHT22;7459;53.590;10.062;2023-08-20T00:55:09;19.40;99.90
14737;DHT22;7459;53.590;10.062;2023-08-20T00:57:39;19.40;99.90
14737;DHT22;7459;53.590;10.062;2023-08-20T01:00:06;19.40;99.90
14737;DHT22;7459;53.590;10.062;2023-08-20T01:02:37;19.40;99.90
14737;DHT22;7459;53.590;10.062;2023-08-20T01:05:05;19.50;99.90
14737;DHT22;7459;53.590;10.062;2023-08-20T01:07:43;19.60;99.90
14737;DHT22;7459;53.590;10.062;2023-08-20T01:13:06;19.60;99.90
14737;DHT22;7459;53.590;10.062;2023-08-20T01:15:32;19.70;99.90
14737;DHT22;7459;53.590;10.062;2023-08-20T01:17:58;19.70;99.90
14737;DHT22;7459;53.590;10.062;2023-08-20T01:20:28;19.70;99.90
14737;DHT22;7459;53.590;10.062;2023-08-20T01:23:13;19.70;99.90
14737;DHT22;7459;53.590;10.062;2023-08-20T01:26:02;19.70;99.90
14737;DHT22;7459;53.590;10.062;2023-08-20T01:28:37;19.60;99.90
14737;DHT22;7459;53.590;10.062;2023-08-20T01:31:05;19.60;99.90
14737;DHT22;7459;53.590;10.062;2023-08-20T01:33:31;19.60;99.90
14737;DHT22;7459;53.590;10.062;2023-08-20T01:35:57;19.60;99.90
14737;DHT22;7459;53.590;10.062;2023-08-20T01:38:23;19.50;99.90
14737;DHT22;7459;53.590;10.062;2023-08-20T01:40:49;19.50;99.90
14737;DHT22;7459;53.590;10.062;2023-08-20T01:43:15;19.50;99.90
14737;DHT22;7459;53.590;10.062;2023-08-20T01:45:41;19.40;99.90
14737;DHT22;7459;53.590;10.062;2023-08-20T01:48:07;19.40;99.90
14737;DHT22;7459;53.590;10.062;2023-08-20T01:50:34;19.40;99.90
14737;DHT22;7459;53.590;10.062;2023-08-20T01:53:00;19.40;99.90
14737;DHT22;7459;53.590;10.062;2023-08-20T01:55:26;19.40;99.90
14737;DHT22;7459;53.590;10.062;2023-08-20T01:57:52;19.40;99.90
14737;DHT22;7459;53.590;10.062;2023-08-20T02:00:17;19.30;99.90
14737;DHT22;7459;53.590;10.062;2023-08-20T02:02:43;19.30;99.90
14737;DHT22;7459;53.590;10.062;2023-08-20T02:05:09;19.30;99.90
14737;DHT22;7459;53.590;10.062;2023-08-20T02:07:36;19.20;99.90
14737;DHT22;7459;53.590;10.062;2023-08-20T02:10:02;19.20;99.90
14737;DHT22;7459;53.590;10.062;2023-08-20T02:12:28;19.20;99.90
14737;DHT22;7459;53.590;10.062;2023-08-20T02:14:54;19.20;99.90
14737;DHT22;7459;53.590;10.062;2023-08-20T02:17:19;19.20;99.90
14737;DHT22;7459;53.590;10.062;2023-08-20T02:19:45;19.20;99.90
14737;DHT22;7459;53.590;10.062;2023-08-20T02:22:11;19.20;99.90
14737;DHT22;7459;53.590;10.062;2023-08-20T02:24:36;19.20;99.90
14737;DHT22;7459;53.590;10.062;2023-08-20T02:27:02;19.20;99.90
14737;DHT22;7459;53.590;10.062;2023-08-20T02:29:31;19.20;99.90
14737;DHT22;7459;53.590;10.062;2023-08-20T02:31:57;19.20;99.90
14737;DHT22;7459;53.590;10.062;2023-08-20T02:34:23;19.20;99.90
14737;DHT22;7459;53.590;10.062;2023-08-20T02:36:48;19.20;99.90
14737;DHT22;7459;53.590;10.062;2023-08-20T02:39:15;19.20;99.90
14737;DHT22;7459;53.590;10.062;2023-08-20T02:41:42;19.30;99.90
14737;DHT22;7459;53.590;10.062;2023-08-20T02:44:07;19.20;99.90
14737;DHT22;7459;53.590;10.062;2023-08-20T02:46:33;19.20;99.90
14737;DHT22;7459;53.590;10.062;2023-08-20T02:48:59;19.20;99.90
14737;DHT22;7459;53.590;10.062;2023-08-20T02:51:24;19.20;99.90
14737;DHT22;7459;53.590;10.062;2023-08-20T02:53:50;19.20;99.90
14737;DHT22;7459;53.590;10.062;2023-08-20T02:56:16;19.10;99.90
14737;DHT22;7459;53.590;10.062;2023-08-20T02:58:41;19.10;99.90
14737;DHT22;7459;53.590;10.062;2023-08-20T03:01:20;19.00;99.90
14737;DHT22;7459;53.590;10.062;2023-08-20T03:03:46;19.00;99.90
14737;DHT22;7459;53.590;10.062;2023-08-20T03:06:12;19.00;99.90
14737;DHT22;7459;53.590;10.062;2023-08-20T03:08:38;18.90;99.90
14737;DHT22;7459;53.590;10.062;2023-08-20T03:11:03;18.90;99.90
14737;DHT22;7459;53.590;10.062;2023-08-20T03:13:29;18.90;99.90
14737;DHT22;7459;53.590;10.062;2023-08-20T03:15:55;18.80;99.90
14737;DHT22;7459;53.590;10.062;2023-08-20T03:18:20;18.80;99.90
14737;DHT22;7459;53.590;10.062;2023-08-20T03:20:46;18.90;99.90
14737;DHT22;7459;53.590;10.062;2023-08-20T03:23:12;18.90;99.90
14737;DHT22;7459;53.590;10.062;2023-08-20T03:25:38;18.80;99.90
14737;DHT22;7459;53.590;10.062;2023-08-20T03:28:04;18.80;99.90
14737;DHT22;7459;53.590;10.062;2023-08-20T03:30:30;18.80;99.90
14737;DHT22;7459;53.590;10.062;2023-08-20T03:32:57;18.80;99.90
14737;DHT22;7459;53.590;10.062;2023-08-20T03:35:22;18.80;99.90
14737;DHT22;7459;53.590;10.062;2023-08-20T03:37:48;18.80;99.90
14737;DHT22;7459;53.590;10.062;2023-08-20T03:40:14;18.70;99.90
14737;DHT22;7459;53.590;10.062;2023-08-20T03:42:40;18.70;99.90
14737;DHT22;7459;53.590;10.062;2023-08-20T03:45:06;18.80;99.90
14737;DHT22;7459;53.590;10.062;2023-08-20T03:47:32;18.70;99.90
14737;DHT22;7459;53.590;10.062;2023-08-20T03:49:58;18.70;99.90
14737;DHT22;7459;53.590;10.062;2023-08-20T03:52:24;18.70;99.90
14737;DHT22;7459;53.590;10.062;2023-08-20T03:54:49;18.70;99.90
14737;DHT22;7459;53.590;10.062;2023-08-20T03:57:16;18.70;99.90
14737;DHT22;7459;53.590;10.062;2023-08-20T03:59:41;18.60;99.90
14737;DHT22;7459;53.590;10.062;2023-08-20T04:02:07;18.60;99.90
14737;DHT22;7459;53.590;10.062;2023-08-20T04:04:33;18.60;99.90
14737;DHT22;7459;53.590;10.062;2023-08-20T04:06:58;18.60;99.90
14737;DHT22;7459;53.590;10.062;2023-08-20T04:09:24;18.60;99.90
14737;DHT22;7459;53.590;10.062;2023-08-20T04:11:50;18.60;99.90
14737;DHT22;7459;53.590;10.062;2023-08-20T04:14:15;18.60;99.90
14737;DHT22;7459;53.590;10.062;2023-08-20T04:16:41;18.50;99.90
14737;DHT22;7459;53.590;10.062;2023-08-20T04:19:07;18.50;99.90
14737;DHT22;7459;53.590;10.062;2023-08-20T04:21:33;18.50;99.90
14737;DHT22;7459;53.590;10.062;2023-08-20T04:23:58;18.50;99.90
14737;DHT22;7459;53.590;10.062;2023-08-20T04:26:24;18.50;99.90
14737;DHT22;7459;53.590;10.062;2023-08-20T04:28:50;18.50;99.90
14737;DHT22;7459;53.590;10.062;2023-08-20T04:31:15;18.50;99.90
14737;DHT22;7459;53.590;10.062;2023-08-20T04:33:41;18.50;99.90
14737;DHT22;7459;53.590;10.062;2023-08-20T04:36:07;18.50;99.90
14737;DHT22;7459;53.590;10.062;2023-08-20T04:38:32;18.50;99.90
14737;DHT22;7459;53.590;10.062;2023-08-20T04:40:58;18.50;99.90
14737;DHT22;7459;53.590;10.062;2023-08-20T04:43:24;18.50;99.90
14737;DHT22;7459;53.590;10.062;2023-08-20T04:45:50;18.50;99.90
14737;DHT22;7459;53.590;10.062;2023-08-20T04:48:15;18.50;99.90
14737;DHT22;7459;53.590;10.062;2023-08-20T04:50:41;18.40;99.90
14737;DHT22;7459;53.590;10.062;2023-08-20T04:53:06;18.40;99.90
14737;DHT22;7459;53.590;10.062;2023-08-20T04:55:32;18.40;99.90
14737;DHT22;7459;53.590;10.062;2023-08-20T04:57:58;18.50;99.90
14737;DHT22;7459;53.590;10.062;2023-08-20T05:00:24;18.50;99.90
14737;DHT22;7459;53.590;10.062;2023-08-20T05:02:50;18.60;99.90
14737;DHT22;7459;53.590;10.062;2023-08-20T05:05:15;18.60;99.90
14737;DHT22;7459;53.590;10.062;2023-08-20T05:07:42;18.60;99.90
14737;DHT22;7459;53.590;10.062;2023-08-20T05:10:07;18.60;99.90
14737;DHT22;7459;53.590;10.062;2023-08-20T05:12:34;18.70;99.90
14737;DHT22;7459;53.590;10.062;2023-08-20T05:15:00;18.70;99.90
14737;DHT22;7459;53.590;10.062;2023-08-20T05:17:26;18.70;99.90
14737;DHT22;7459;53.590;10.062;2023-08-20T05:19:51;18.70;99.90
14737;DHT22;7459;53.590;10.062;2023-08-20T05:22:17;18.70;99.90
14737;DHT22;7459;53.590;10.062;2023-08-20T05:24:42;18.80;99.90
14737;DHT22;7459;53.590;10.062;2023-08-20T05:27:15;18.80;99.90
14737;DHT22;7459;53.590;10.062;2023-08-20T05:29:43;18.80;99.90
14737;DHT22;7459;53.590;10.062;2023-08-20T05:32:09;18.80;99.90
14737;DHT22;7459;53.590;10.062;2023-08-20T05:34:35;18.80;99.90
14737;DHT22;7459;53.590;10.062;2023-08-20T05:37:01;18.80;99.90
14737;DHT22;7459;53.590;10.062;2023-08-20T05:39:27;18.80;99.90
14737;DHT22;7459;53.590;10.062;2023-08-20T05:41:56;18.80;99.90
14737;DHT22;7459;53.590;10.062;2023-08-20T05:44:22;18.70;99.90
14737;DHT22;7459;53.590;10.062;2023-08-20T05:46:48;18.80;99.90
14737;DHT22;7459;53.590;10.062;2023-08-20T05:49:14;18.80;99.90
14737;DHT22;7459;53.590;10.062;2023-08-20T05:51:43;18.80;99.90
14737;DHT22;7459;53.590;10.062;2023-08-20T05:54:09;18.80;99.90
14737;DHT22;7459;53.590;10.062;2023-08-20T05:56:35;18.90;99.90
14737;DHT22;7459;53.590;10.062;2023-08-20T05:59:00;19.00;99.90
14737;DHT22;7459;53.590;10.062;2023-08-20T06:01:26;19.00;99.90
14737;DHT22;7459;53.590;10.062;2023-08-20T06:03:52;19.00;99.90
14737;DHT22;7459;53.590;10.062;2023-08-20T06:06:17;19.00;99.90
14737;DHT22;7459;53.590;10.062;2023-08-20T06:08:43;19.00;99.90
14737;DHT22;7459;53.590;10.062;2023-08-20T06:11:09;19.00;99.90
14737;DHT22;7459;53.590;10.062;2023-08-20T06:13:34;19.00;99.90
14737;DHT22;7459;53.590;10.062;2023-08-20T06:16:00;19.10;99.90
14737;DHT22;7459;53.590;10.062;2023-08-20T06:18:26;19.10;99.90
14737;DHT22;7459;53.590;10.062;2023-08-20T06:20:51;19.10;99.90
14737;DHT22;7459;53.590;10.062;2023-08-20T06:23:17;19.10;99.90
14737;DHT22;7459;53.590;10.062;2023-08-20T06:25:43;19.00;99.90
14737;DHT22;7459;53.590;10.062;2023-08-20T06:28:09;19.00;99.90
14737;DHT22;7459;53.590;10.062;2023-08-20T06:30:35;19.00;99.90
14737;DHT22;7459;53.590;10.062;2023-08-20T06:33:01;19.10;99.90
14737;DHT22;7459;53.590;10.062;2023-08-20T06:35:27;19.20;99.90
14737;DHT22;7459;53.590;10.062;2023-08-20T06:37:52;19.20;99.90
14737;DHT22;7459;53.590;10.062;2023-08-20T06:40:18;19.20;99.90
14737;DHT22;7459;53.590;10.062;2023-08-20T06:42:44;19.10;99.90
14737;DHT22;7459;53.590;10.062;2023-08-20T06:45:10;19.10;99.90
14737;DHT22;7459;53.590;10.062;2023-08-20T06:47:35;19.10;99.90
14737;DHT22;7459;53.590;10.062;2023-08-20T06:50:02;19.20;99.90
14737;DHT22;7459;53.590;10.062;2023-08-20T06:52:27;19.20;99.90
14737;DHT22;7459;53.590;10.062;2023-08-20T06:54:53;19.30;99.90
14737;DHT22;7459;53.590;10.062;2023-08-20T06:57:19;19.40;99.90
14737;DHT22;7459;53.590;10.062;2023-08-20T06:59:44;19.50;99.90
14737;DHT22;7459;53.590;10.062;2023-08-20T07:02:10;19.50;99.90
14737;DHT22;7459;53.590;10.062;2023-08-20T07:04:36;19.60;99.90
14737;DHT22;7459;53.590;10.062;2023-08-20T07:07:03;19.60;99.90
14737;DHT22;7459;53.590;10.062;2023-08-20T07:09:30;19.60;99.90
14737;DHT22;7459;53.590;10.062;2023-08-20T07:11:56;19.70;99.90
14737;DHT22;7459;53.590;10.062;2023-08-20T07:14:22;19.80;99.90
14737;DHT22;7459;53.590;10.062;2023-08-20T07:16:47;19.80;99.90
14737;DHT22;7459;53.590;10.062;2023-08-20T07:19:13;19.90;99.90
14737;DHT22;7459;53.590;10.062;2023-08-20T07:21:39;19.90;99.90
14737;DHT22;7459;53.590;10.062;2023-08-20T07:24:05;20.00;99.90
14737;DHT22;7459;53.590;10.062;2023-08-20T07:26:30;20.10;99.90
14737;DHT22;7459;53.590;10.062;2023-08-20T07:28:56;20.10;99.90
14737;DHT22;7459;53.590;10.062;2023-08-20T07:31:29;20.10;99.90
14737;DHT22;7459;53.590;10.062;2023-08-20T07:33:56;20.20;99.90
14737;DHT22;7459;53.590;10.062;2023-08-20T07:36:24;20.20;99.90
14737;DHT22;7459;53.590;10.062;2023-08-20T07:38:54;20.30;99.90
14737;DHT22;7459;53.590;10.062;2023-08-20T07:41:21;20.30;99.90
14737;DHT22;7459;53.590;10.062;2023-08-20T07:43:47;20.40;99.90
14737;DHT22;7459;53.590;10.062;2023-08-20T07:46:14;20.40;99.90
14737;DHT22;7459;53.590;10.062;2023-08-20T07:48:40;20.50;99.90
14737;DHT22;7459;53.590;10.062;2023-08-20T07:51:07;20.50;99.90
14737;DHT22;7459;53.590;10.062;2023-08-20T07:53:33;20.40;99.90
14737;DHT22;7459;53.590;10.062;2023-08-20T07:56:00;20.40;99.90
14737;DHT22;7459;53.590;10.062;2023-08-20T07:58:26;20.40;99.90
14737;DHT22;7459;53.590;10.062;2023-08-20T08:00:52;20.50;99.90
14737;DHT22;7459;53.590;10.062;2023-08-20T08:03:17;20.40;99.90
14737;DHT22;7459;53.590;10.062;2023-08-20T08:05:50;20.40;99.90
14737;DHT22;7459;53.590;10.062;2023-08-20T08:08:16;20.50;99.90
14737;DHT22;7459;53.590;10.062;2023-08-20T08:10:43;20.40;99.90
14737;DHT22;7459;53.590;10.062;2023-08-20T08:13:11;20.40;99.90
14737;DHT22;7459;53.590;10.062;2023-08-20T08:15:40;20.40;99.90
14737;DHT22;7459;53.590;10.062;2023-08-20T08:18:07;20.50;99.90
14737;DHT22;7459;53.590;10.062;2023-08-20T08:20:33;20.40;99.90
14737;DHT22;7459;53.590;10.062;2023-08-20T08:22:59;20.50;99.90
14737;DHT22;7459;53.590;10.062;2023-08-20T08:25:25;20.60;99.90
14737;DHT22;7459;53.590;10.062;2023-08-20T08:27:51;20.60;99.90
14737;DHT22;7459;53.590;10.062;2023-08-20T08:30:17;20.60;99.90
14737;DHT22;7459;53.590;10.062;2023-08-20T08:32:43;20.60;99.90
14737;DHT22;7459;53.590;10.062;2023-08-20T08:35:09;20.70;99.90
14737;DHT22;7459;53.590;10.062;2023-08-20T08:37:34;20.70;99.90
14737;DHT22;7459;53.590;10.062;2023-08-20T08:40:00;20.80;99.90
14737;DHT22;7459;53.590;10.062;2023-08-20T08:42:27;20.80;99.90
14737;DHT22;7459;53.590;10.062;2023-08-20T08:44:52;20.90;99.90
14737;DHT22;7459;53.590;10.062;2023-08-20T08:47:18;20.90;99.90
14737;DHT22;7459;53.590;10.062;2023-08-20T08:49:48;21.00;99.90
14737;DHT22;7459;53.590;10.062;2023-08-20T08:52:14;20.90;99.90
14737;DHT22;7459;53.590;10.062;2023-08-20T08:54:40;20.90;99.90
14737;DHT22;7459;53.590;10.062;2023-08-20T08:57:06;20.80;99.90
14737;DHT22;7459;53.590;10.062;2023-08-20T08:59:32;20.90;99.90
14737;DHT22;7459;53.590;10.062;2023-08-20T09:01:58;21.00;99.90
14737;DHT22;7459;53.590;10.062;2023-08-20T09:04:24;21.00;99.90
14737;DHT22;7459;53.590;10.062;2023-08-20T09:06:51;21.00;99.90
14737;DHT22;7459;53.590;10.062;2023-08-20T09:09:19;21.10;99.90
14737;DHT22;7459;53.590;10.062;2023-08-20T09:11:47;21.10;99.90
14737;DHT22;7459;53.590;10.062;2023-08-20T09:14:23;21.10;99.90
14737;DHT22;7459;53.590;10.062;2023-08-20T09:17:02;21.10;99.90
14737;DHT22;7459;53.590;10.062;2023-08-20T09:19:29;21.10;99.90
14737;DHT22;7459;53.590;10.062;2023-08-20T09:22:03;21.10;99.90
14737;DHT22;7459;53.590;10.062;2023-08-20T09:24:38;21.10;99.90
14737;DHT22;7459;53.590;10.062;2023-08-20T09:27:05;21.10;99.90
14737;DHT22;7459;53.590;10.062;2023-08-20T09:29:51;21.10;99.90
14737;DHT22;7459;53.590;10.062;2023-08-20T09:32:23;21.20;99.90
14737;DHT22;7459;53.590;10.062;2023-08-20T09:34:54;21.20;99.90
14737;DHT22;7459;53.590;10.062;2023-08-20T09:37:23;21.20;99.90
14737;DHT22;7459;53.590;10.062;2023-08-20T09:39:49;21.30;99.90
14737;DHT22;7459;53.590;10.062;2023-08-20T09:42:16;21.40;99.90
14737;DHT22;7459;53.590;10.062;2023-08-20T09:44:43;21.50;99.90
14737;DHT22;7459;53.590;10.062;2023-08-20T09:47:14;21.50;99.90
14737;DHT22;7459;53.590;10.062;2023-08-20T09:49:43;21.60;99.90
14737;DHT22;7459;53.590;10.062;2023-08-20T09:52:15;21.60;99.90
14737;DHT22;7459;53.590;10.062;2023-08-20T09:57:37;21.60;99.90
14737;DHT22;7459;53.590;10.062;2023-08-20T10:00:08;21.60;99.90
14737;DHT22;7459;53.590;10.062;2023-08-20T10:02:35;21.60;99.90
14737;DHT22;7459;53.590;10.062;2023-08-20T10:05:03;21.60;99.90
14737;DHT22;7459;53.590;10.062;2023-08-20T10:07:31;21.70;99.90
14737;DHT22;7459;53.590;10.062;2023-08-20T10:10:01;21.70;99.90
14737;DHT22;7459;53.590;10.062;2023-08-20T10:12:29;21.80;99.90
14737;DHT22;7459;53.590;10.062;2023-08-20T10:14:56;21.80;99.90
14737;DHT22;7459;53.590;10.062;2023-08-20T10:17:23;21.90;99.90
14737;DHT22;7459;53.590;10.062;2023-08-20T10:19:53;22.00;99.90
14737;DHT22;7459;53.590;10.062;2023-08-20T10:22:20;22.10;99.90
14737;DHT22;7459;53.590;10.062;2023-08-20T10:24:51;22.00;99.90
14737;DHT22;7459;53.590;10.062;2023-08-20T10:27:34;22.00;99.90
14737;DHT22;7459;53.590;10.062;2023-08-20T10:30:02;22.10;99.90
14737;DHT22;7459;53.590;10.062;2023-08-20T10:32:49;22.20;99.90
14737;DHT22;7459;53.590;10.062;2023-08-20T10:35:26;22.20;99.90
14737;DHT22;7459;53.590;10.062;2023-08-20T10:38:13;22.30;99.90
14737;DHT22;7459;53.590;10.062;2023-08-20T10:40:57;22.30;99.90
14737;DHT22;7459;53.590;10.062;2023-08-20T10:43:46;22.40;99.90
14737;DHT22;7459;53.590;10.062;2023-08-20T10:46:14;22.30;99.90
14737;DHT22;7459;53.590;10.062;2023-08-20T10:48:41;22.40;99.90
14737;DHT22;7459;53.590;10.062;2023-08-20T10:51:15;22.40;99.90
14737;DHT22;7459;53.590;10.062;2023-08-20T10:53:48;22.60;99.90
14737;DHT22;7459;53.590;10.062;2023-08-20T10:56:17;22.60;99.90
14737;DHT22;7459;53.590;10.062;2023-08-20T10:58:47;22.60;99.90
14737;DHT22;7459;53.590;10.062;2023-08-20T11:01:22;22.60;99.90
14737;DHT22;7459;53.590;10.062;2023-08-20T11:03:51;22.70;99.90
14737;DHT22;7459;53.590;10.062;2023-08-20T11:06:18;22.60;99.90
14737;DHT22;7459;53.590;10.062;2023-08-20T11:08:44;22.70;99.90
14737;DHT22;7459;53.590;10.062;2023-08-20T11:11:10;22.70;99.90
14737;DHT22;7459;53.590;10.062;2023-08-20T11:13:37;22.80;99.90
14737;DHT22;7459;53.590;10.062;2023-08-20T11:16:03;22.90;99.90
14737;DHT22;7459;53.590;10.062;2023-08-20T11:18:32;22.90;99.90
14737;DHT22;7459;53.590;10.062;2023-08-20T11:20:59;22.90;99.90
14737;DHT22;7459;53.590;10.062;2023-08-20T11:23:25;22.90;99.90
14737;DHT22;7459;53.590;10.062;2023-08-20T11:25:51;23.00;99.90
14737;DHT22;7459;53.590;10.062;2023-08-20T11:28:16;23.10;99.90
14737;DHT22;7459;53.590;10.062;2023-08-20T11:30:42;23.10;99.90
14737;DHT22;7459;53.590;10.062;2023-08-20T11:33:08;23.20;99.90
14737;DHT22;7459;53.590;10.062;2023-08-20T11:35:35;23.10;99.90
14737;DHT22;7459;53.590;10.062;2023-08-20T11:38:03;23.20;99.90
14737;DHT22;7459;53.590;10.062;2023-08-20T11:40:29;23.20;99.90
14737;DHT22;7459;53.590;10.062;2023-08-20T11:42:55;23.30;99.90
14737;DHT22;7459;53.590;10.062;2023-08-20T11:45:21;23.40;99.90
14737;DHT22;7459;53.590;10.062;2023-08-20T11:47:46;23.30;99.90
14737;DHT22;7459;53.590;10.062;2023-08-20T11:50:12;23.30;99.90
14737;DHT22;7459;53.590;10.062;2023-08-20T11:52:38;23.20;99.90
14737;DHT22;7459;53.590;10.062;2023-08-20T11:55:07;23.20;99.90
14737;DHT22;7459;53.590;10.062;2023-08-20T11:57:34;23.20;99.90
14737;DHT22;7459;53.590;10.062;2023-08-20T12:00:03;23.20;99.90
14737;DHT22;7459;53.590;10.062;2023-08-20T12:02:30;23.20;99.90
14737;DHT22;7459;53.590;10.062;2023-08-20T12:04:56;23.20;99.90
14737;DHT22;7459;53.590;10.062;2023-08-20T12:07:26;23.20;99.90
14737;DHT22;7459;53.590;10.062;2023-08-20T12:09:53;23.20;99.90
14737;DHT22;7459;53.590;10.062;2023-08-20T12:12:20;23.20;99.90
14737;DHT22;7459;53.590;10.062;2023-08-20T12:14:47;23.30;99.90
14737;DHT22;7459;53.590;10.062;2023-08-20T12:17:17;23.20;99.90
14737;DHT22;7459;53.590;10.062;2023-08-20T12:19:45;23.20;99.90
14737;DHT22;7459;53.590;10.062;2023-08-20T12:22:11;23.20;99.90
14737;DHT22;7459;53.590;10.062;2023-08-20T12:24:38;23.30;99.90
14737;DHT22;7459;53.590;10.062;2023-08-20T12:27:04;23.30;99.90
14737;DHT22;7459;53.590;10.062;2023-08-20T12:29:30;23.30;99.90
14737;DHT22;7459;53.590;10.062;2023-08-20T12:31:55;23.30;99.90
14737;DHT22;7459;53.590;10.062;2023-08-20T12:34:21;23.30;99.90
14737;DHT22;7459;53.590;10.062;2023-08-20T12:36:49;23.30;99.90
14737;DHT22;7459;53.590;10.062;2023-08-20T12:39:15;23.30;99.90
14737;DHT22;7459;53.590;10.062;2023-08-20T12:41:40;23.30;99.90
14737;DHT22;7459;53.590;10.062;2023-08-20T12:44:06;23.30;99.90
14737;DHT22;7459;53.590;10.062;2023-08-20T12:46:32;23.40;99.90
14737;DHT22;7459;53.590;10.062;2023-08-20T12:48:59;23.40;99.90
14737;DHT22;7459;53.590;10.062;2023-08-20T12:51:26;23.40;99.90
14737;DHT22;7459;53.590;10.062;2023-08-20T12:53:51;23.60;99.90
14737;DHT22;7459;53.590;10.062;2023-08-20T12:56:17;23.50;99.90
14737;DHT22;7459;53.590;10.062;2023-08-20T12:58:44;23.60;99.90
14737;DHT22;7459;53.590;10.062;2023-08-20T13:01:09;23.60;99.90
14737;DHT22;7459;53.590;10.062;2023-08-20T13:03:36;23.60;99.90
14737;DHT22;7459;53.590;10.062;2023-08-20T13:06:02;23.60;99.90
14737;DHT22;7459;53.590;10.062;2023-08-20T13:08:29;23.60;99.90
14737;DHT22;7459;53.590;10.062;2023-08-20T13:10:57;23.60;99.90
14737;DHT22;7459;53.590;10.062;2023-08-20T13:13:24;23.60;99.90
14737;DHT22;7459;53.590;10.062;2023-08-20T13:15:51;23.60;99.90
14737;DHT22;7459;53.590;10.062;2023-08-20T13:18:18;23.60;99.90
14737;DHT22;7459;53.590;10.062;2023-08-20T13:20:44;23.60;99.90
14737;DHT22;7459;53.590;10.062;2023-08-20T13:23:10;23.60;99.90
14737;DHT22;7459;53.590;10.062;2023-08-20T13:25:36;23.60;99.90
14737;DHT22;7459;53.590;10.062;2023-08-20T13:28:01;23.60;99.90
14737;DHT22;7459;53.590;10.062;2023-08-20T13:30:28;23.60;99.90
14737;DHT22;7459;53.590;10.062;2023-08-20T13:32:54;23.70;99.90
14737;DHT22;7459;53.590;10.062;2023-08-20T13:35:20;23.80;99.90
14737;DHT22;7459;53.590;10.062;2023-08-20T13:37:45;24.00;99.90
14737;DHT22;7459;53.590;10.062;2023-08-20T13:40:11;24.10;99.90
14737;DHT22;7459;53.590;10.062;2023-08-20T13:42:37;24.20;99.90
14737;DHT22;7459;53.590;10.062;2023-08-20T13:45:03;24.40;99.90
14737;DHT22;7459;53.590;10.062;2023-08-20T13:47:29;24.30;99.90
14737;DHT22;7459;53.590;10.062;2023-08-20T13:49:55;24.30;99.90
14737;DHT22;7459;53.590;10.062;2023-08-20T13:52:20;24.20;99.90
14737;DHT22;7459;53.590;10.062;2023-08-20T13:54:46;24.30;99.90
14737;DHT22;7459;53.590;10.062;2023-08-20T13:57:12;24.30;99.90
14737;DHT22;7459;53.590;10.062;2023-08-20T13:59:37;24.40;99.90
14737;DHT22;7459;53.590;10.062;2023-08-20T14:02:04;24.40;99.90
14737;DHT22;7459;53.590;10.062;2023-08-20T14:04:30;24.50;99.90
14737;DHT22;7459;53.590;10.062;2023-08-20T14:06:55;24.50;99.90
14737;DHT22;7459;53.590;10.062;2023-08-20T14:09:21;24.50;99.90
14737;DHT22;7459;53.590;10.062;2023-08-20T14:11:48;24.50;99.90
14737;DHT22;7459;53.590;10.062;2023-08-20T14:14:14;24.50;99.90
14737;DHT22;7459;53.590;10.062;2023-08-20T14:16:40;24.50;99.90
14737;DHT22;7459;53.590;10.062;2023-08-20T14:19:06;24.40;99.90
14737;DHT22;7459;53.590;10.062;2023-08-20T14:21:31;24.40;99.90
14737;DHT22;7459;53.590;10.062;2023-08-20T14:23:57;24.40;99.90
14737;DHT22;7459;53.590;10.062;2023-08-20T14:26:23;24.40;99.90
14737;DHT22;7459;53.590;10.062;2023-08-20T14:28:49;24.40;99.90
14737;DHT22;7459;53.590;10.062;2023-08-20T14:31:14;24.40;99.90
14737;DHT22;7459;53.590;10.062;2023-08-20T14:33:40;24.50;99.90
14737;DHT22;7459;53.590;10.062;2023-08-20T14:36:06;24.50;99.90
14737;DHT22;7459;53.590;10.062;2023-08-20T14:38:32;24.60;99.90
14737;DHT22;7459;53.590;10.062;2023-08-20T14:41:01;24.60;99.90
14737;DHT22;7459;53.590;10.062;2023-08-20T14:43:28;24.60;99.90
14737;DHT22;7459;53.590;10.062;2023-08-20T14:45:54;24.60;99.90
14737;DHT22;7459;53.590;10.062;2023-08-20T14:48:21;24.60;99.90
14737;DHT22;7459;53.590;10.062;2023-08-20T14:50:47;24.70;99.90
14737;DHT22;7459;53.590;10.062;2023-08-20T14:53:13;24.70;99.90
14737;DHT22;7459;53.590;10.062;2023-08-20T14:55:39;24.70;99.90
14737;DHT22;7459;53.590;10.062;2023-08-20T14:58:05;24.70;99.90
14737;DHT22;7459;53.590;10.062;2023-08-20T15:00:34;24.70;99.90
14737;DHT22;7459;53.590;10.062;2023-08-20T15:03:00;24.80;99.90
14737;DHT22;7459;53.590;10.062;2023-08-20T15:05:27;24.80;99.90
14737;DHT22;7459;53.590;10.062;2023-08-20T15:07:52;24.80;99.90
14737;DHT22;7459;53.590;10.062;2023-08-20T15:10:18;24.80;99.90
14737;DHT22;7459;53.590;10.062;2023-08-20T15:12:44;24.70;99.90
14737;DHT22;7459;53.590;10.062;2023-08-20T15:15:10;24.60;99.90
14737;DHT22;7459;53.590;10.062;2023-08-20T15:17:37;24.70;99.90
14737;DHT22;7459;53.590;10.062;2023-08-20T15:20:04;24.70;99.90
14737;DHT22;7459;53.590;10.062;2023-08-20T15:22:31;24.70;99.90
14737;DHT22;7459;53.590;10.062;2023-08-20T15:24:57;24.60;99.90
14737;DHT22;7459;53.590;10.062;2023-08-20T15:27:25;24.60;99.90
14737;DHT22;7459;53.590;10.062;2023-08-20T15:29:51;24.60;99.90
14737;DHT22;7459;53.590;10.062;2023-08-20T15:32:17;24.60;99.90
14737;DHT22;7459;53.590;10.062;2023-08-20T15:34:43;24.60;99.90